Time;durP1;ratioP1;P1;durP2;ratioP2;P2;SDS_P1;SDS_P2;PMS_P1;PMS_P2;Temp;Humidity;BMP_temperature;BMP_pressure;BME280_temperature;BME280_humidity;BME280_pressure;Samples;Min_cycle;Max_cycle;Signal;HPM_P1;HPM_P2
2022/07/28 00:02:42;;;;;;;5.53;1.63;;;;;;;21.62;38.27;98026.84;8125268;29;20247;-73
2022/07/28 00:06:45;;;;;;;3.17;1.80;;;;;;;21.54;38.52;98029.31;8126029;29;20594;-73
2022/07/28 00:10:48;;;;;;;6.77;2.10;;;;;;;21.54;38.36;98024.88;8125815;29;20535;-72
2022/07/28 00:14:52;;;;;;;5.03;1.90;;;;;;;21.52;38.56;98026.00;8125873;29;20239;-73
2022/07/28 00:18:55;;;;;;;9.63;1.93;;;;;;;21.45;38.66;98025.69;8125886;29;20235;-73
2022/07/28 00:22:59;;;;;;;9.30;2.00;;;;;;;21.38;38.83;98028.00;8125669;29;20353;-73
2022/07/28 00:27:02;;;;;;;6.57;1.80;;;;;;;21.36;38.96;98026.47;8125419;29;20550;-73
2022/07/28 00:31:06;;;;;;;7.10;1.90;;;;;;;21.38;38.98;98030.66;8125224;29;20244;-73
2022/07/28 00:35:13;;;;;;;3.10;1.60;;;;;;;21.28;39.38;98016.59;8125361;29;20241;-73
2022/07/28 00:39:17;;;;;;;5.50;1.70;;;;;;;21.22;39.48;98019.78;8125270;29;20240;-73
2022/07/28 00:43:20;;;;;;;7.67;1.90;;;;;;;21.20;39.69;98026.97;8125221;29;20236;-73
2022/07/28 00:47:24;;;;;;;4.43;2.00;;;;;;;21.14;39.74;98025.72;8124843;29;20234;-74
2022/07/28 00:51:28;;;;;;;6.23;1.83;;;;;;;21.10;39.84;98019.03;8124974;29;20233;-73
2022/07/28 00:55:31;;;;;;;5.43;2.13;;;;;;;21.09;39.93;98020.84;8124892;29;20251;-73
2022/07/28 00:59:53;;;;;;;6.23;1.97;;;;;;;20.95;40.27;98015.09;8124208;29;20403;-73
2022/07/28 01:04:01;;;;;;;4.60;1.90;;;;;;;21.02;40.06;98014.44;8124300;29;20252;-73
2022/07/28 01:08:10;;;;;;;7.13;2.13;;;;;;;20.97;40.09;98007.91;8124278;29;20241;-73
2022/07/28 01:12:20;;;;;;;7.40;2.10;;;;;;;21.11;39.88;98010.16;8124322;29;20236;-73
2022/07/28 01:16:22;;;;;;;6.90;1.77;;;;;;;21.00;40.31;98007.63;8124190;29;20237;-73
2022/07/28 01:20:32;;;;;;;4.10;2.00;;;;;;;20.94;40.38;98013.44;8124199;29;20389;-73
2022/07/28 01:24:44;;;;;;;5.93;2.00;;;;;;;20.89;40.83;98013.84;8123861;29;20237;-73
2022/07/28 01:28:59;;;;;;;5.83;1.90;;;;;;;20.82;41.21;98012.69;8123879;29;20550;-73
2022/07/28 01:33:07;;;;;;;7.03;2.23;;;;;;;20.78;41.37;98013.94;8117736;29;20236;-73
2022/07/28 01:37:13;;;;;;;5.37;2.10;;;;;;;20.71;41.42;98010.97;8123833;29;20235;-73
2022/07/28 01:41:19;;;;;;;5.37;2.10;;;;;;;20.64;41.60;98002.78;8123671;29;20236;-73
2022/07/28 01:45:23;;;;;;;4.73;2.03;;;;;;;20.65;41.63;98004.44;8123259;29;20233;-73
2022/07/28 01:49:30;;;;;;;6.93;2.23;;;;;;;20.50;41.98;98006.56;8123445;29;20240;-74
2022/07/28 01:53:33;;;;;;;3.80;2.20;;;;;;;20.54;41.99;98001.00;8123620;29;20237;-73
2022/07/28 01:57:40;;;;;;;8.13;2.10;;;;;;;20.51;41.91;97995.06;8123504;29;20525;-73
2022/07/28 02:01:44;;;;;;;5.37;1.87;;;;;;;20.50;41.87;97988.13;8123355;29;20236;-73
2022/07/28 02:05:50;;;;;;;3.97;1.80;;;;;;;20.60;41.43;97985.59;8123017;29;20245;-72
2022/07/28 02:09:55;;;;;;;4.53;1.80;;;;;;;20.49;41.86;97986.47;8123313;29;20554;-73
2022/07/28 02:13:58;;;;;;;3.83;1.90;;;;;;;20.47;42.06;97977.03;8123882;29;20242;-73
2022/07/28 02:18:02;;;;;;;5.13;1.90;;;;;;;20.47;42.03;97971.78;8129800;29;20241;-73
2022/07/28 02:22:07;;;;;;;7.43;1.93;;;;;;;20.38;42.07;97972.56;8129320;29;20241;-73
2022/07/28 02:26:11;;;;;;;5.33;2.17;;;;;;;20.36;42.22;97975.31;8129069;29;20246;-73
2022/07/28 02:30:16;;;;;;;6.30;2.30;;;;;;;20.36;42.20;97962.16;8117534;29;20245;-73
2022/07/28 02:34:22;;;;;;;7.73;2.20;;;;;;;20.30;42.25;97960.88;8097962;29;20242;-73
2022/07/28 02:38:34;;;;;;;3.83;2.00;;;;;;;20.30;42.23;97957.44;8097738;29;20424;-73
2022/07/28 02:42:38;;;;;;;5.87;2.20;;;;;;;20.30;42.50;97962.69;8097567;29;20406;-73
2022/07/28 02:46:43;;;;;;;6.50;2.40;;;;;;;20.38;42.20;97951.53;8121266;29;20241;-73
2022/07/28 02:50:47;;;;;;;4.67;2.27;;;;;;;20.33;42.45;97951.88;8128198;29;20240;-73
2022/07/28 02:54:53;;;;;;;6.07;1.80;;;;;;;20.39;41.96;97950.53;8127649;29;20238;-73
2022/07/28 02:58:57;;;;;;;6.23;2.50;;;;;;;20.39;41.92;97953.16;8128389;29;20240;-73
2022/07/28 03:03:00;;;;;;;7.67;2.33;;;;;;;20.36;42.13;97962.16;8128072;29;20237;-73
2022/07/28 03:07:03;;;;;;;5.77;2.10;;;;;;;20.36;41.88;97958.72;8127979;29;20529;-73
2022/07/28 03:11:08;;;;;;;8.60;2.30;;;;;;;20.26;42.18;97951.59;8127881;29;20244;-73
2022/07/28 03:15:11;;;;;;;4.87;2.07;;;;;;;20.30;42.05;97955.63;8127548;29;20579;-73
2022/07/28 03:19:14;;;;;;;7.93;2.10;;;;;;;20.29;42.05;97953.94;8127656;29;20292;-73
2022/07/28 03:23:17;;;;;;;5.20;2.03;;;;;;;20.28;41.81;97964.63;8127520;29;20236;-73
2022/07/28 03:27:26;;;;;;;5.20;1.80;;;;;;;20.22;42.31;97965.97;8127058;29;20249;-73
2022/07/28 03:31:29;;;;;;;4.37;2.03;;;;;;;20.21;42.67;97964.28;8127191;29;20232;-73
2022/07/28 03:35:32;;;;;;;9.30;2.20;;;;;;;20.11;42.91;97964.22;8127111;29;20239;-73
2022/07/28 03:39:40;;;;;;;3.57;1.80;;;;;;;20.24;42.57;97973.72;8127134;29;20236;-73
2022/07/28 03:43:44;;;;;;;3.30;1.80;;;;;;;20.20;42.73;97965.25;8126786;29;20233;-73
2022/07/28 03:47:52;;;;;;;4.03;1.90;;;;;;;20.18;42.88;97964.56;8126471;29;20281;-73
2022/07/28 03:51:55;;;;;;;6.60;1.83;;;;;;;20.21;42.24;97971.34;8126709;29;20240;-73
2022/07/28 03:55:58;;;;;;;5.83;1.93;;;;;;;20.16;42.62;97974.34;8126601;29;20240;-73
2022/07/28 04:00:02;;;;;;;5.47;2.00;;;;;;;20.16;42.82;97970.88;8126523;29;20540;-73
2022/07/28 04:04:11;;;;;;;4.23;1.97;;;;;;;20.16;42.54;97970.88;8126393;29;20547;-73
2022/07/28 04:08:14;;;;;;;5.10;2.60;;;;;;;20.14;42.50;97970.19;8126074;29;20238;-73
2022/07/28 04:12:17;;;;;;;6.40;2.00;;;;;;;20.12;42.82;97975.56;8115852;29;20301;-73
2022/07/28 04:16:21;;;;;;;9.30;1.77;;;;;;;20.12;42.72;97975.56;8094759;29;20226;-73
2022/07/28 04:20:26;;;;;;;8.43;2.13;;;;;;;20.08;42.76;97976.78;8094801;29;20234;-73
2022/07/28 04:24:28;;;;;;;7.43;2.27;;;;;;;20.06;42.98;97974.28;8094733;29;20236;-73
2022/07/28 04:28:31;;;;;;;5.47;2.00;;;;;;;20.11;42.88;97971.28;8094429;29;20432;-73
2022/07/28 04:32:37;;;;;;;5.43;1.80;;;;;;;20.02;42.58;97972.88;8094574;29;20221;-73
2022/07/28 04:36:42;;;;;;;3.60;2.00;;;;;;;20.16;42.60;97973.50;8093609;29;20233;-73
2022/07/28 04:40:45;;;;;;;4.83;2.00;;;;;;;20.20;42.53;97972.28;8094487;29;20232;-73
2022/07/28 04:44:47;;;;;;;4.53;2.10;;;;;;;20.11;42.85;97979.16;8102941;29;20230;-72
2022/07/28 04:48:52;;;;;;;10.30;2.20;;;;;;;20.18;42.66;97982.09;8124883;29;20230;-72
2022/07/28 04:52:55;;;;;;;4.37;1.87;;;;;;;20.24;42.76;97981.63;8124734;29;20634;-73
2022/07/28 04:56:58;;;;;;;6.83;2.00;;;;;;;20.16;43.01;97973.50;8124706;29;20243;-72
2022/07/28 05:01:04;;;;;;;4.37;1.83;;;;;;;20.34;42.58;97971.97;8124550;29;20268;-73
2022/07/28 05:05:09;;;;;;;3.50;1.80;;;;;;;20.34;42.41;97971.16;8124374;29;20308;-73
2022/07/28 05:09:12;;;;;;;4.97;2.20;;;;;;;20.41;42.38;97978.41;8124531;29;20245;-73
2022/07/28 05:13:15;;;;;;;5.27;1.90;;;;;;;20.37;42.42;97971.72;8124476;29;20244;-73
2022/07/28 05:17:18;;;;;;;4.83;2.00;;;;;;;20.57;42.31;97967.41;8124421;29;20241;-73
2022/07/28 05:21:22;;;;;;;5.70;2.07;;;;;;;20.62;41.61;97967.88;8124135;29;20236;-73
2022/07/28 05:25:25;;;;;;;4.73;2.00;;;;;;;20.70;41.17;97968.03;8124018;29;20229;-73
2022/07/28 05:29:28;;;;;;;5.73;1.90;;;;;;;20.87;41.35;97969.22;8123878;29;20232;-73
2022/07/28 05:33:49;;;;;;;5.73;1.90;;;;;;;21.03;40.84;97965.25;8115929;29;20276;-72
2022/07/28 05:37:55;;;;;;;6.77;1.73;;;;;;;20.99;41.47;97980.47;8123354;29;20229;-72
2022/07/28 05:41:58;;;;;;;5.73;2.10;;;;;;;21.00;40.84;97971.63;8123554;29;20541;-73
2022/07/28 05:46:01;;;;;;;5.93;2.10;;;;;;;21.13;41.40;97981.06;8123497;29;20436;-73
2022/07/28 05:50:04;;;;;;;5.83;2.00;;;;;;;21.27;40.89;97973.63;8122585;29;20594;-73
2022/07/28 05:54:09;;;;;;;9.80;2.30;;;;;;;21.17;41.32;97982.47;8123472;29;20255;-74
2022/07/28 05:58:12;;;;;;;4.13;1.90;;;;;;;21.24;40.85;97971.25;8123552;29;20235;-73
2022/07/28 06:02:15;;;;;;;5.67;2.03;;;;;;;21.01;41.16;97975.91;8123552;29;20236;-73
2022/07/28 06:06:18;;;;;;;8.20;2.20;;;;;;;21.13;41.05;97981.06;8123548;29;20232;-73
2022/07/28 06:10:26;;;;;;;6.20;1.83;;;;;;;21.33;40.81;97979.34;8123400;29;20234;-73
2022/07/28 06:14:29;;;;;;;8.43;2.17;;;;;;;21.40;40.72;97978.66;8123268;29;20233;-72
2022/07/28 06:18:33;;;;;;;9.87;2.70;;;;;;;21.48;40.39;97980.63;8123354;29;20236;-73
2022/07/28 06:22:43;;;;;;;9.00;2.63;;;;;;;21.48;40.62;97983.28;8123274;29;20420;-73
2022/07/28 06:26:47;;;;;;;9.57;2.33;;;;;;;21.50;41.14;97980.50;8122728;29;20246;-73
2022/07/28 06:30:50;;;;;;;11.27;2.20;;;;;;;21.59;40.77;97983.16;8122638;29;20228;-72
2022/07/28 06:34:53;;;;;;;10.33;2.70;;;;;;;21.56;40.65;97980.78;8123212;29;20425;-73
2022/07/28 06:38:56;;;;;;;6.37;2.30;;;;;;;21.71;40.56;97986.47;8122961;29;20531;-72
2022/07/28 06:43:00;;;;;;;10.47;3.10;;;;;;;21.19;40.89;97985.78;8122648;29;20247;-72
2022/07/28 06:47:03;;;;;;;12.67;2.53;;;;;;;22.02;40.20;97988.97;8122661;29;20493;-71
2022/07/28 06:51:06;;;;;;;12.73;3.40;;;;;;;22.42;38.65;97982.69;8122696;29;20236;-72
2022/07/28 06:55:10;;;;;;;6.83;3.57;;;;;;;22.63;38.68;97993.88;8122681;29;20436;-72
2022/07/28 06:59:17;;;;;;;11.63;3.40;;;;;;;22.74;38.05;97992.06;8122798;29;20239;-72
2022/07/28 07:03:20;;;;;;;12.97;4.00;;;;;;;22.55;37.03;97993.78;8127628;29;20247;-72
2022/07/28 07:07:23;;;;;;;9.23;3.50;;;;;;;22.41;37.63;97991.63;8128166;29;20252;-72
2022/07/28 07:11:26;;;;;;;9.03;3.90;;;;;;;22.39;38.03;97977.69;8128067;29;20427;-73
2022/07/28 07:15:30;;;;;;;11.17;3.53;;;;;;;22.67;37.16;97980.41;8127683;29;20232;-72
2022/07/28 07:19:36;;;;;;;9.43;3.27;;;;;;;23.32;36.70;97990.97;8127947;29;20268;-72
2022/07/28 07:23:39;;;;;;;7.83;4.10;;;;;;;23.37;35.87;97991.38;8127727;29;20240;-72
2022/07/28 07:27:42;;;;;;;8.00;3.30;;;;;;;23.17;36.52;97978.28;8127506;29;20244;-72
2022/07/28 07:31:46;;;;;;;10.50;3.20;;;;;;;23.50;36.00;97978.63;8127528;29;20233;-72
2022/07/28 07:35:55;;;;;;;10.57;3.60;;;;;;;23.50;35.98;97969.88;8120143;29;20232;-72
2022/07/28 07:39:57;;;;;;;10.63;3.33;;;;;;;23.82;35.47;97969.41;8126833;29;20252;-72
2022/07/28 07:44:00;;;;;;;8.13;3.73;;;;;;;23.71;34.99;97973.06;8126817;29;20241;-72
2022/07/28 07:48:05;;;;;;;9.47;3.73;;;;;;;23.81;34.46;97957.16;8126822;29;20237;-72
2022/07/28 07:52:07;;;;;;;9.37;3.70;;;;;;;24.63;34.09;97957.75;8126904;29;20566;-72
2022/07/28 07:56:10;;;;;;;11.40;2.93;;;;;;;24.11;33.57;97957.72;8126788;29;20237;-71
2022/07/28 08:00:14;;;;;;;6.50;3.20;;;;;;;24.32;33.20;97946.78;8126279;29;20229;-72
2022/07/28 08:04:33;;;;;;;8.13;3.20;;;;;;;24.90;32.87;97947.94;8102004;29;20524;-72
2022/07/28 08:08:39;;;;;;;9.20;3.20;;;;;;;24.88;32.80;97955.22;8095451;29;20239;-73
2022/07/28 08:12:49;;;;;;;7.37;3.77;;;;;;;24.91;32.56;97954.91;8094066;29;20269;-72
2022/07/28 08:16:55;;;;;;;6.40;3.43;;;;;;;25.68;31.57;97958.31;8094900;29;20239;-73
2022/07/28 08:20:59;;;;;;;11.40;3.60;;;;;;;25.93;31.07;97961.81;8094994;29;20234;-73
2022/07/28 08:25:02;;;;;;;8.47;2.73;;;;;;;26.10;30.60;97962.66;8094311;29;20246;-73
2022/07/28 08:29:05;;;;;;;8.87;3.20;;;;;;;26.26;30.78;97959.13;8094824;29;20242;-73
2022/07/28 08:33:08;;;;;;;6.73;2.60;;;;;;;26.87;30.27;97959.50;8094324;29;20242;-73
2022/07/28 08:37:12;;;;;;;8.83;2.80;;;;;;;26.42;29.62;97958.28;8094211;29;20237;-73
2022/07/28 08:41:20;;;;;;;10.40;3.50;;;;;;;26.81;29.43;97968.19;8094324;29;20239;-73
2022/07/28 08:45:26;;;;;;;7.30;3.10;;;;;;;26.83;29.22;97952.06;8107930;29;20261;-73
2022/07/28 08:49:32;;;;;;;6.03;3.17;;;;;;;27.08;29.12;97958.94;8124956;29;20247;-73
2022/07/28 08:53:40;;;;;;;6.73;2.73;;;;;;;27.53;29.04;97953.91;8124964;29;20224;-73
2022/07/28 08:57:43;;;;;;;9.73;3.27;;;;;;;27.14;28.42;97968.03;8125036;29;20237;-73
2022/07/28 09:01:47;;;;;;;5.33;2.63;;;;;;;27.03;29.17;97957.78;8124776;29;20239;-73
2022/07/28 09:05:53;;;;;;;13.73;3.40;;;;;;;27.07;28.48;97959.09;8117085;29;20456;-72
2022/07/28 09:09:57;;;;;;;10.27;3.17;;;;;;;27.58;27.73;97953.38;8124370;29;20238;-73
2022/07/28 09:14:04;;;;;;;7.20;3.10;;;;;;;28.06;27.58;97946.88;8124307;29;20247;-72
2022/07/28 09:18:07;;;;;;;11.27;3.60;;;;;;;28.21;26.66;97951.41;8124024;29;20254;-73
2022/07/28 09:22:10;;;;;;;8.83;3.20;;;;;;;28.57;26.89;97940.91;8124147;29;20240;-73
2022/07/28 09:26:15;;;;;;;5.53;3.07;;;;;;;28.71;26.32;97941.09;8123334;29;20248;-73
2022/07/28 09:30:28;;;;;;;9.43;3.20;;;;;;;29.10;25.73;97938.09;8108831;29;20244;-73
2022/07/28 09:34:40;;;;;;;6.97;2.90;;;;;;;27.81;26.58;97937.41;8108473;29;20243;-73
2022/07/28 09:38:44;;;;;;;6.03;2.63;;;;;;;28.80;25.25;97937.31;8108534;29;20651;-73
2022/07/28 09:42:49;;;;;;;6.67;3.00;;;;;;;28.76;25.93;97930.69;8107756;29;20240;-73
2022/07/28 09:46:52;;;;;;;9.27;2.70;;;;;;;29.16;24.23;97939.22;8116366;29;20238;-73
2022/07/28 09:51:10;;;;;;;6.93;3.00;;;;;;;28.91;25.05;97930.69;8123296;29;20565;-73
2022/07/28 09:55:13;;;;;;;7.63;2.70;;;;;;;29.44;24.76;97934.00;8123296;29;20232;-73
2022/07/28 09:59:17;;;;;;;5.70;2.70;;;;;;;29.84;24.57;97920.25;8123146;29;20238;-71
2022/07/28 10:03:26;;;;;;;6.97;2.90;;;;;;;29.30;23.68;97918.84;8123247;29;20236;-71
2022/07/28 10:07:33;;;;;;;7.27;2.20;;;;;;;28.81;25.16;97917.66;8123032;29;20231;-73
2022/07/28 10:11:38;;;;;;;5.33;2.50;;;;;;;29.43;24.45;97913.66;8122344;29;20429;-73
2022/07/28 10:16:10;;;;;;;4.00;2.60;;;;;;;29.65;23.19;97913.69;8123152;29;20260;-73
2022/07/28 10:20:13;;;;;;;6.37;2.30;;;;;;;29.35;23.75;97906.59;8122780;29;20232;-73
2022/07/28 10:24:21;;;;;;;3.90;2.13;;;;;;;28.75;23.89;97905.06;8122065;29;20551;-73
2022/07/28 10:28:25;;;;;;;6.83;2.20;;;;;;;29.60;23.73;97906.25;8091734;29;20225;-72
2022/07/28 10:32:32;;;;;;;7.53;2.47;;;;;;;29.69;23.06;97893.59;8091654;29;20820;-73
2022/07/28 10:36:35;;;;;;;8.13;2.40;;;;;;;29.24;23.28;97891.09;8094908;29;20321;-73
2022/07/28 10:40:40;;;;;;;5.63;2.20;;;;;;;30.25;22.29;97882.13;8097654;29;20544;-73
2022/07/28 10:44:44;;;;;;;3.27;2.10;;;;;;;30.59;22.98;97879.47;8105800;29;20244;-73
2022/07/28 10:48:49;;;;;;;8.33;2.40;;;;;;;30.47;22.38;97878.41;8120209;29;20246;-72
2022/07/28 10:52:54;;;;;;;4.23;2.10;;;;;;;31.02;22.74;97880.31;8128288;29;20241;-73
2022/07/28 10:57:02;;;;;;;6.03;2.17;;;;;;;31.02;22.51;97878.47;8122468;29;20535;-73
2022/07/28 11:01:06;;;;;;;7.40;2.63;;;;;;;31.37;22.24;97875.66;8127896;29;20258;-73
2022/07/28 11:05:34;;;;;;;7.03;2.23;;;;;;;31.62;21.97;97873.22;8127945;29;20233;-73
2022/07/28 11:09:37;;;;;;;5.37;2.43;;;;;;;31.41;21.56;97876.06;8127639;29;20238;-73
2022/07/28 11:13:39;;;;;;;5.63;2.27;;;;;;;31.62;21.56;97867.06;8127235;29;20239;-74
2022/07/28 11:17:57;;;;;;;4.43;2.40;;;;;;;31.41;21.90;97866.19;8127708;29;20246;-74
2022/07/28 11:22:27;;;;;;;9.10;2.50;;;;;;;31.58;22.01;97858.63;8127295;29;20245;-74
2022/07/28 11:26:35;;;;;;;6.37;2.93;;;;;;;31.13;21.73;97861.81;8127206;29;20250;-73
2022/07/28 11:30:53;;;;;;;4.63;2.80;;;;;;;31.03;22.10;97839.97;8127167;29;20427;-74
2022/07/28 11:35:09;;;;;;;5.53;2.70;;;;;;;31.72;21.60;97836.19;8120065;29;20252;-73
2022/07/28 11:39:23;;;;;;;11.23;3.37;;;;;;;31.84;20.79;97838.25;8127038;29;20343;-74
2022/07/28 11:43:34;;;;;;;8.23;2.90;;;;;;;31.75;21.52;97841.09;8126846;29;20229;-74
2022/07/28 11:47:40;;;;;;;7.30;3.00;;;;;;;31.44;21.63;97843.56;8095811;29;20233;-74
2022/07/28 11:52:07;;;;;;;7.23;2.93;;;;;;;31.43;21.55;97848.06;8095709;29;20245;-74
2022/07/28 11:56:13;;;;;;;6.90;3.03;;;;;;;32.37;20.77;97837.31;8095284;29;20232;-74
2022/07/28 12:00:20;;;;;;;7.63;3.10;;;;;;;32.11;20.63;97825.66;8095362;29;20262;-74
2022/07/28 12:04:26;;;;;;;10.40;3.20;;;;;;;31.40;21.87;97824.41;8095739;29;20569;-74
2022/07/28 12:08:29;;;;;;;7.50;2.80;;;;;;;31.46;22.24;97814.75;8095583;29;20552;-72
2022/07/28 12:12:33;;;;;;;10.03;3.07;;;;;;;31.82;21.82;97830.41;8096569;29;20314;-73
2022/07/28 12:16:38;;;;;;;7.40;3.10;;;;;;;31.66;21.14;97831.66;8102553;29;20427;-74
2022/07/28 12:20:45;;;;;;;6.03;2.80;;;;;;;32.42;21.33;97827.63;8109717;29;20229;-74
2022/07/28 12:24:56;;;;;;;6.47;2.80;;;;;;;32.43;19.99;97817.75;8108708;29;20239;-74
2022/07/28 12:29:01;;;;;;;10.20;3.17;;;;;;;31.63;20.96;97823.22;8118507;29;20429;-71
2022/07/28 12:33:17;;;;;;;6.53;2.90;;;;;;;31.91;20.86;97807.75;8108995;29;20250;-73
2022/07/28 12:37:22;;;;;;;6.67;3.07;;;;;;;31.04;21.92;97806.06;8108579;29;20231;-73
2022/07/28 12:41:31;;;;;;;4.47;2.67;;;;;;;31.18;21.87;97810.41;8108347;29;20323;-73
2022/07/28 12:45:46;;;;;;;7.77;2.90;;;;;;;31.00;21.93;97794.94;8115310;29;20231;-73
2022/07/28 12:50:07;;;;;;;4.67;2.47;;;;;;;30.51;22.80;97804.03;8099731;29;20507;-73
2022/07/28 12:54:12;;;;;;;4.70;2.97;;;;;;;30.87;23.00;97795.72;8108875;29;20241;-74
2022/07/28 12:58:23;;;;;;;3.83;2.50;;;;;;;30.42;23.20;97797.19;8113375;29;20224;-74
2022/07/28 13:02:37;;;;;;;7.57;3.00;;;;;;;29.88;23.50;97796.88;8124865;29;20240;-73
2022/07/28 13:06:40;;;;;;;9.90;3.07;;;;;;;29.67;24.42;97787.06;8118791;29;20254;-71
2022/07/28 13:10:46;;;;;;;6.17;2.70;;;;;;;29.55;23.93;97786.78;8124150;29;20239;-73
2022/07/28 13:14:52;;;;;;;7.77;2.83;;;;;;;29.41;24.22;97785.00;8123585;29;20233;-73
2022/07/28 13:18:58;;;;;;;7.90;3.17;;;;;;;29.38;24.37;97788.91;8124004;29;20547;-72
2022/07/28 13:23:00;;;;;;;6.63;2.80;;;;;;;29.08;24.66;97776.69;8123688;29;20341;-73
2022/07/28 13:27:05;;;;;;;8.63;2.70;;;;;;;29.38;24.57;97772.91;8336392;23;20579;-77
2022/07/28 13:31:08;;;;;;;5.07;2.30;;;;;;;29.53;24.53;97764.81;8061172;29;20246;-76
2022/07/28 13:35:13;;;;;;;11.43;2.90;;;;;;;30.37;23.88;97771.91;8061144;29;20232;-77
2022/07/28 13:39:17;;;;;;;6.57;3.00;;;;;;;29.44;23.70;97761.44;8061467;29;20234;-76
2022/07/28 13:43:20;;;;;;;4.07;2.40;;;;;;;30.26;23.22;97766.28;8061129;29;20265;-75
2022/07/28 13:47:23;;;;;;;6.90;2.90;;;;;;;30.91;22.52;97761.41;8060944;29;20230;-76
2022/07/28 13:51:27;;;;;;;4.53;2.47;;;;;;;31.02;22.50;97751.97;8061039;29;20239;-76
2022/07/28 13:55:30;;;;;;;4.70;2.40;;;;;;;31.08;22.33;97743.13;8060787;29;20252;-76
2022/07/28 13:59:33;;;;;;;3.63;2.43;;;;;;;31.09;22.33;97744.75;8060743;29;20231;-76
2022/07/28 14:03:39;;;;;;;7.07;2.70;;;;;;;30.70;22.06;97751.66;8060643;29;20235;-75
2022/07/28 14:08:01;;;;;;;6.53;2.53;;;;;;;30.54;22.70;97745.66;8060402;29;20347;-76
2022/07/28 14:12:04;;;;;;;5.40;2.57;;;;;;;30.07;23.14;97739.28;8064495;29;20303;-75
2022/07/28 14:16:07;;;;;;;6.60;2.27;;;;;;;30.03;23.71;97746.06;8066826;29;20558;-77
2022/07/28 14:20:16;;;;;;;6.70;2.40;;;;;;;29.90;23.39;97732.63;8066826;29;20243;-75
2022/07/28 14:24:20;;;;;;;8.00;2.50;;;;;;;29.85;23.79;97743.06;8066621;29;20531;-75
2022/07/28 14:28:23;;;;;;;4.87;2.27;;;;;;;29.84;23.58;97736.91;8066256;29;20536;-76
2022/07/28 14:32:26;;;;;;;6.43;2.70;;;;;;;29.96;23.42;97731.84;8066229;29;20245;-76
2022/07/28 14:36:30;;;;;;;6.30;2.80;;;;;;;30.58;23.65;97738.09;8065999;29;20324;-76
2022/07/28 14:40:35;;;;;;;6.47;2.30;;;;;;;31.04;22.28;97724.00;8065550;29;20242;-76
2022/07/28 14:44:41;;;;;;;7.30;2.57;;;;;;;31.16;21.96;97722.34;8032566;29;20251;-77
2022/07/28 14:48:44;;;;;;;10.17;2.80;;;;;;;30.77;22.34;97725.78;8058083;29;20397;-77
2022/07/28 14:52:47;;;;;;;3.80;2.20;;;;;;;30.52;23.15;97725.50;8031972;29;20308;-76
2022/07/28 14:56:51;;;;;;;5.10;2.37;;;;;;;30.59;23.10;97723.69;8034932;29;20237;-74
2022/07/28 15:00:54;;;;;;;6.30;2.40;;;;;;;30.53;23.16;97730.66;8035088;29;20431;-75
2022/07/28 15:04:57;;;;;;;4.60;2.13;;;;;;;30.18;22.85;97720.03;8034975;29;20241;-76
2022/07/28 15:09:01;;;;;;;6.07;2.73;;;;;;;30.32;23.43;97728.94;8034851;29;20235;-76
2022/07/28 15:13:05;;;;;;;9.03;2.47;;;;;;;30.25;23.33;97729.91;8034609;29;20564;-76
2022/07/28 15:17:08;;;;;;;6.37;2.47;;;;;;;29.97;23.45;97722.81;8034317;29;20420;-75
2022/07/28 15:21:15;;;;;;;4.00;2.20;;;;;;;29.90;23.42;97732.63;8034178;29;20530;-76
2022/07/28 15:25:18;;;;;;;4.47;2.10;;;;;;;29.86;23.95;97729.53;8034423;29;20303;-76
2022/07/28 15:29:22;;;;;;;4.57;2.20;;;;;;;29.87;23.38;97727.69;8034306;29;20247;-78
2022/07/28 15:33:25;;;;;;;4.57;2.43;;;;;;;29.75;23.54;97725.56;8034111;29;20246;-77
2022/07/28 15:37:28;;;;;;;9.07;2.50;;;;;;;29.81;23.59;97726.63;8058409;29;20350;-76
2022/07/28 15:41:31;;;;;;;5.00;2.47;;;;;;;29.89;23.77;97722.97;8063955;29;20248;-76
2022/07/28 15:45:35;;;;;;;5.37;2.37;;;;;;;29.72;23.47;97719.75;8063734;29;20247;-76
2022/07/28 15:49:38;;;;;;;5.90;2.60;;;;;;;29.87;23.15;97719.66;8063750;29;20518;-75
2022/07/28 15:53:41;;;;;;;6.83;2.73;;;;;;;29.86;23.58;97710.03;8063455;29;20239;-75
2022/07/28 15:57:44;;;;;;;6.60;2.60;;;;;;;29.71;23.32;97710.13;8063414;29;20257;-75
2022/07/28 16:01:48;;;;;;;3.87;2.00;;;;;;;29.45;23.06;97706.25;8063328;29;20238;-76
2022/07/28 16:05:51;;;;;;;6.20;2.10;;;;;;;29.43;23.39;97703.81;8062913;29;20244;-78
2022/07/28 16:09:54;;;;;;;4.33;2.17;;;;;;;29.34;23.81;97701.44;8063132;29;20520;-76
2022/07/28 16:13:57;;;;;;;4.70;2.07;;;;;;;29.40;23.42;97701.50;8062887;29;20567;-75
2022/07/28 16:18:02;;;;;;;5.97;2.33;;;;;;;29.48;23.24;97695.19;8062888;29;20549;-76
2022/07/28 16:22:04;;;;;;;9.00;2.37;;;;;;;29.41;23.79;97689.00;8062572;29;20260;-75
2022/07/28 16:26:08;;;;;;;5.60;2.50;;;;;;;29.19;24.09;97691.72;8062372;29;20421;-75
2022/07/28 16:30:11;;;;;;;6.47;2.43;;;;;;;29.10;24.53;97684.03;8061618;29;20404;-75
2022/07/28 16:34:15;;;;;;;5.07;2.10;;;;;;;29.16;23.64;97684.09;8061230;29;20242;-76
2022/07/28 16:38:19;;;;;;;4.63;2.00;;;;;;;29.01;24.27;97672.66;8046093;29;20238;-77
2022/07/28 16:42:22;;;;;;;3.90;2.20;;;;;;;28.77;24.38;97681.88;8062306;29;20238;-77
2022/07/28 16:46:25;;;;;;;9.40;2.30;;;;;;;28.72;24.65;97681.66;8050725;29;20538;-76
2022/07/28 16:50:30;;;;;;;4.47;2.00;;;;;;;28.70;24.17;97679.16;8040133;29;20241;-76
2022/07/28 16:54:33;;;;;;;7.07;2.30;;;;;;;28.64;24.70;97672.75;8061867;29;20525;-75
2022/07/28 16:58:36;;;;;;;2.83;2.13;;;;;;;28.45;24.40;97666.19;8061451;29;20247;-75
2022/07/28 17:02:40;;;;;;;5.77;2.03;;;;;;;28.59;24.19;97666.34;8061541;29;20233;-76
2022/07/28 17:06:45;;;;;;;11.63;2.50;;;;;;;28.55;24.62;97660.59;8061543;29;20238;-76
2022/07/28 17:10:49;;;;;;;9.77;2.40;;;;;;;28.56;24.17;97656.91;8060636;29;20243;-75
2022/07/28 17:14:52;;;;;;;4.87;2.13;;;;;;;28.52;24.49;97660.97;8061358;29;20382;-75
2022/07/28 17:18:55;;;;;;;5.83;2.30;;;;;;;28.30;24.56;97667.25;8061159;29;20256;-76
2022/07/28 17:22:59;;;;;;;3.27;2.20;;;;;;;28.42;24.42;97666.56;8061164;29;20234;-75
2022/07/28 17:27:02;;;;;;;4.83;2.10;;;;;;;28.34;24.45;97660.53;8039727;29;20371;-77
2022/07/28 17:31:25;;;;;;;4.70;1.70;;;;;;;28.29;24.77;97655.78;8053405;29;20245;-76
2022/07/28 17:35:29;;;;;;;4.87;2.10;;;;;;;28.06;24.93;97666.56;8060911;29;20398;-76
2022/07/28 17:39:37;;;;;;;3.63;2.23;;;;;;;28.21;24.59;97670.03;8061212;29;20234;-75
2022/07/28 17:43:40;;;;;;;4.57;2.20;;;;;;;28.08;24.42;97672.53;8060720;29;20243;-75
2022/07/28 17:47:47;;;;;;;5.20;2.40;;;;;;;27.94;24.97;97668.06;8060102;29;20235;-75
2022/07/28 17:51:50;;;;;;;4.23;2.50;;;;;;;27.90;24.93;97677.44;8053935;29;20245;-76
2022/07/28 17:55:55;;;;;;;6.57;2.27;;;;;;;27.93;24.51;97675.25;8061247;29;20521;-83
2022/07/28 18:00:03;;;;;;;3.23;1.93;;;;;;;27.88;25.22;97678.44;8060975;29;20382;-82
2022/07/28 18:04:06;;;;;;;5.07;2.10;;;;;;;27.83;25.26;97679.97;8040623;29;20238;-80
2022/07/28 18:08:09;;;;;;;5.13;2.23;;;;;;;27.73;25.57;97684.75;8059212;29;20542;-75
2022/07/28 18:12:13;;;;;;;6.67;2.33;;;;;;;27.78;26.57;97685.84;8060277;29;20235;-76
2022/07/28 18:16:16;;;;;;;3.43;2.10;;;;;;;27.71;26.23;97686.78;8060289;29;20421;-75
2022/07/28 18:20:19;;;;;;;4.33;1.90;;;;;;;27.73;26.89;97690.06;8060505;29;20312;-75
2022/07/28 18:24:22;;;;;;;4.93;1.90;;;;;;;27.59;26.48;97702.38;8059264;29;20236;-79
2022/07/28 18:28:26;;;;;;;8.77;2.13;;;;;;;27.57;26.66;97705.22;8060242;29;20254;-76
2022/07/28 18:32:29;;;;;;;6.30;2.10;;;;;;;27.50;26.71;97705.09;8050580;29;20279;-76
2022/07/28 18:36:32;;;;;;;7.97;2.07;;;;;;;27.49;27.54;97700.81;8060503;29;20245;-75
2022/07/28 18:40:35;;;;;;;7.73;2.20;;;;;;;27.39;27.19;97702.06;8060443;29;20248;-75
2022/07/28 18:44:39;;;;;;;11.33;3.37;;;;;;;27.26;27.98;97695.56;8059866;29;20320;-75
2022/07/28 18:48:44;;;;;;;8.43;2.40;;;;;;;27.20;27.59;97698.06;8060250;29;20483;-74
2022/07/28 18:52:50;;;;;;;18.83;2.37;;;;;;;27.16;27.78;97694.94;8059753;29;20566;-75
2022/07/28 18:56:54;;;;;;;18.57;3.00;;;;;;;27.09;29.02;97699.31;8061655;29;20240;-74
2022/07/28 19:00:59;;;;;;;9.10;2.40;;;;;;;27.02;28.36;97706.38;8065486;29;20238;-78
2022/07/28 19:05:01;;;;;;;9.90;2.33;;;;;;;26.95;28.56;97708.91;8065622;29;20322;-75
2022/07/28 19:09:05;;;;;;;6.97;2.40;;;;;;;26.90;28.65;97706.78;8065587;29;20265;-75
2022/07/28 19:13:08;;;;;;;5.17;2.00;;;;;;;26.90;28.64;97700.63;8060202;29;20259;-75